createdAt,value
2023-04-12T00:01:52.247Z,22.86
2023-04-12T00:04:18.771Z,22.85
2023-04-12T00:06:48.343Z,22.82
2023-04-12T00:09:15.894Z,22.78
2023-04-12T00:11:42.225Z,22.77
2023-04-12T00:14:08.566Z,22.75
2023-04-12T00:16:36.239Z,22.72
2023-04-12T00:19:03.573Z,22.71
2023-04-12T00:21:30.152Z,22.69
2023-04-12T00:23:57.413Z,22.67
2023-04-12T00:26:25.759Z,22.64
2023-04-12T00:28:52.086Z,22.64
2023-04-12T00:31:18.491Z,22.61
2023-04-12T00:33:44.960Z,22.57
2023-04-12T00:36:11.327Z,22.54
2023-04-12T00:38:38.114Z,22.51
2023-04-12T00:41:04.436Z,22.49
2023-04-12T00:43:30.780Z,22.48
2023-04-12T00:45:57.722Z,22.45
2023-04-12T00:48:24.359Z,22.43
2023-04-12T00:50:51.161Z,22.42
2023-04-12T00:53:17.691Z,22.39
2023-04-12T00:55:44.321Z,22.38
2023-04-12T00:58:10.718Z,22.36
2023-04-12T01:00:37.080Z,22.34
2023-04-12T01:03:05.327Z,22.34
2023-04-12T01:05:31.734Z,22.30
2023-04-12T01:08:16.884Z,22.29
2023-04-12T01:10:52.437Z,22.28
2023-04-12T01:13:18.695Z,22.27
2023-04-12T01:15:48.686Z,22.26
2023-04-12T01:18:17.307Z,22.23
2023-04-12T01:20:44.690Z,22.22
2023-04-12T01:23:14.749Z,22.20
2023-04-12T01:25:51.069Z,22.20
2023-04-12T01:28:20.956Z,22.18
2023-04-12T01:30:47.566Z,22.16
2023-04-12T01:33:13.952Z,22.14
2023-04-12T01:35:40.701Z,22.14
2023-04-12T01:38:07.047Z,22.09
2023-04-12T01:40:33.404Z,22.12
2023-04-12T01:43:06.003Z,22.11
2023-04-12T01:45:32.436Z,22.11
2023-04-12T01:47:58.938Z,22.08
2023-04-12T01:50:40.307Z,22.05
2023-04-12T01:53:08.974Z,22.01
2023-04-12T01:55:35.409Z,22.00
2023-04-12T01:58:01.737Z,22.01
2023-04-12T02:00:28.056Z,21.99
2023-04-12T02:02:54.550Z,22.04
2023-04-12T02:05:21.060Z,22.16
2023-04-12T02:07:47.367Z,22.24
2023-04-12T02:10:14.516Z,22.26
2023-04-12T02:12:41.290Z,22.30
2023-04-12T02:15:08.130Z,22.35
2023-04-12T02:17:37.319Z,22.37
2023-04-12T02:20:09.630Z,22.40
2023-04-12T02:22:36.008Z,22.41
2023-04-12T02:25:02.722Z,22.39
2023-04-12T02:27:29.052Z,22.37
2023-04-12T02:29:55.875Z,22.36
2023-04-12T02:32:22.315Z,22.37
2023-04-12T02:34:51.360Z,22.43
2023-04-12T02:37:18.362Z,22.52
2023-04-12T02:39:44.741Z,22.64
2023-04-12T02:42:11.098Z,22.68
2023-04-12T02:44:37.406Z,22.67
2023-04-12T02:47:03.739Z,22.68
2023-04-12T02:49:30.226Z,22.73
2023-04-12T02:51:56.997Z,22.69
2023-04-12T02:54:23.325Z,22.69
2023-04-12T02:56:49.667Z,22.70
2023-04-12T02:59:16.152Z,22.70
2023-04-12T03:01:46.620Z,22.69
2023-04-12T03:04:13.313Z,22.69
2023-04-12T03:06:52.518Z,22.66
2023-04-12T03:09:18.872Z,22.66
2023-04-12T03:11:45.785Z,22.69
2023-04-12T03:14:12.103Z,22.69
2023-04-12T03:16:38.421Z,22.76
2023-04-12T03:19:06.118Z,22.73
2023-04-12T03:21:33.160Z,22.71
2023-04-12T03:23:59.576Z,22.69
2023-04-12T03:26:26.567Z,22.65
2023-04-12T03:28:59.801Z,22.62
2023-04-12T03:31:27.323Z,22.57
2023-04-12T03:33:53.743Z,22.56
2023-04-12T03:36:21.640Z,22.55
2023-04-12T03:38:47.992Z,22.51
2023-04-12T03:41:15.248Z,22.50
2023-04-12T03:43:42.559Z,22.56
2023-04-12T03:46:08.917Z,22.65
2023-04-12T03:48:36.130Z,22.74
2023-04-12T03:51:07.698Z,22.77
2023-04-12T03:53:34.410Z,22.76
2023-04-12T03:56:00.727Z,22.76
2023-04-12T03:58:27.058Z,22.75
2023-04-12T04:00:53.383Z,22.75
2023-04-12T04:03:19.865Z,22.73
2023-04-12T04:05:46.240Z,22.74
2023-04-12T04:08:12.564Z,22.73
2023-04-12T04:10:38.884Z,22.70
2023-04-12T04:13:05.310Z,22.69
2023-04-12T04:15:32.661Z,22.68
2023-04-12T04:17:59.009Z,22.66
2023-04-12T04:20:27.347Z,22.65
2023-04-12T04:22:54.240Z,22.66
2023-04-12T04:25:21.806Z,22.61
2023-04-12T04:27:49.412Z,22.66
2023-04-12T04:30:16.456Z,22.69
2023-04-12T04:32:43.677Z,22.69
2023-04-12T04:35:10.073Z,22.71
2023-04-12T04:37:37.170Z,22.70
2023-04-12T04:40:08.479Z,22.69
2023-04-12T04:42:34.909Z,22.70
2023-04-12T04:45:05.373Z,22.63
2023-04-12T04:47:31.800Z,22.59
2023-04-12T04:49:59.510Z,22.58
2023-04-12T04:52:26.004Z,22.54
2023-04-12T04:54:57.380Z,22.57
2023-04-12T04:57:23.945Z,22.64
2023-04-12T04:59:50.506Z,22.74
2023-04-12T05:02:16.935Z,22.79
2023-04-12T05:04:43.335Z,22.80
2023-04-12T05:07:10.816Z,22.88
2023-04-12T05:09:37.373Z,23.01
2023-04-12T05:12:03.725Z,23.03
2023-04-12T05:14:43.981Z,22.96
2023-04-12T05:17:13.331Z,22.99
2023-04-12T05:19:41.302Z,22.93
2023-04-12T05:22:07.640Z,22.92
2023-04-12T05:24:33.995Z,22.94
2023-04-12T05:27:00.351Z,22.92
2023-04-12T05:29:26.672Z,22.92
2023-04-12T05:31:52.985Z,22.94
2023-04-12T05:34:19.319Z,22.91
2023-04-12T05:36:45.996Z,22.92
2023-04-12T05:39:12.316Z,22.97
2023-04-12T05:41:38.657Z,23.00
2023-04-12T05:44:05.060Z,23.03
2023-04-12T05:46:31.513Z,23.08
2023-04-12T05:48:58.038Z,23.16
2023-04-12T05:51:37.713Z,23.20
2023-04-12T05:54:07.269Z,23.24
2023-04-12T05:56:33.801Z,23.24
2023-04-12T05:59:03.188Z,23.23
2023-04-12T06:01:32.501Z,23.23
2023-04-12T06:03:59.232Z,23.21
2023-04-12T06:06:30.034Z,23.17
2023-04-12T06:09:00.056Z,23.16
2023-04-12T06:11:29.258Z,23.15
2023-04-12T06:13:55.578Z,23.18
2023-04-12T06:16:21.987Z,23.18
2023-04-12T06:18:48.363Z,23.18
2023-04-12T06:21:14.708Z,23.19
2023-04-12T06:23:41.071Z,23.20
2023-04-12T06:26:07.396Z,23.19
2023-04-12T06:28:33.729Z,23.17
2023-04-12T06:31:00.976Z,23.17
2023-04-12T06:33:27.350Z,23.14
2023-04-12T06:35:53.692Z,23.13
2023-04-12T06:38:20.123Z,23.12
2023-04-12T06:40:46.450Z,23.09
2023-04-12T06:43:12.797Z,23.08
2023-04-12T06:45:39.165Z,23.06
2023-04-12T06:48:05.633Z,23.05
2023-04-12T06:50:32.052Z,23.04
2023-04-12T06:52:58.395Z,23.04
2023-04-12T06:55:27.069Z,23.03
2023-04-12T06:57:53.701Z,23.02
2023-04-12T07:00:20.033Z,23.10
2023-04-12T07:02:46.713Z,23.06
2023-04-12T07:05:13.612Z,23.05
2023-04-12T07:07:39.960Z,22.99
2023-04-12T07:10:06.664Z,22.95
2023-04-12T07:12:33.292Z,22.92
2023-04-12T07:14:59.768Z,22.90
2023-04-12T07:17:29.229Z,22.85
2023-04-12T07:19:55.680Z,22.80
2023-04-12T07:22:22.010Z,22.76
2023-04-12T07:24:48.680Z,22.75
2023-04-12T07:27:15.806Z,22.70
2023-04-12T07:29:42.472Z,22.73
2023-04-12T07:32:09.229Z,22.74
2023-04-12T07:34:36.826Z,22.74
2023-04-12T07:37:04.187Z,22.78
2023-04-12T07:39:31.707Z,22.78
2023-04-12T07:41:58.221Z,22.75
2023-04-12T07:44:24.783Z,22.74
2023-04-12T07:46:51.166Z,22.75
2023-04-12T07:49:17.487Z,22.67
2023-04-12T07:51:44.261Z,22.65
2023-04-12T07:54:10.606Z,22.61
2023-04-12T07:56:37.014Z,22.56
2023-04-12T07:59:03.333Z,22.38
2023-04-12T08:01:30.328Z,22.39
2023-04-12T08:03:56.996Z,22.45
2023-04-12T08:06:23.630Z,22.42
2023-04-12T08:08:49.959Z,22.35
2023-04-12T08:11:16.393Z,22.31
2023-04-12T08:13:42.787Z,22.32
2023-04-12T08:16:09.169Z,22.32
2023-04-12T08:18:35.756Z,22.27
2023-04-12T08:21:02.589Z,22.23
2023-04-12T08:23:28.904Z,22.20
2023-04-12T08:26:02.630Z,22.17
2023-04-12T08:28:29.686Z,22.16
2023-04-12T08:30:56.138Z,22.14
2023-04-12T08:33:22.541Z,22.14
2023-04-12T08:35:49.597Z,22.12
2023-04-12T08:38:16.461Z,22.12
2023-04-12T08:40:43.075Z,22.12
2023-04-12T08:43:11.672Z,22.14
2023-04-12T08:45:38.120Z,22.12
2023-04-12T08:48:04.622Z,22.13
2023-04-12T08:50:31.410Z,22.13
2023-04-12T08:53:00.765Z,22.16
2023-04-12T08:55:27.208Z,22.18
2023-04-12T08:57:54.030Z,22.16
2023-04-12T09:00:21.025Z,22.19
2023-04-12T09:02:48.990Z,22.24
2023-04-12T09:05:15.930Z,22.19
2023-04-12T09:07:42.441Z,22.04
2023-04-12T09:10:08.982Z,22.07
2023-04-12T09:12:37.762Z,22.10
2023-04-12T09:15:12.888Z,22.13
2023-04-12T09:17:40.520Z,22.08
2023-04-12T09:20:27.395Z,22.07
2023-04-12T09:22:55.656Z,22.07
2023-04-12T09:25:41.171Z,22.09
2023-04-12T09:28:23.901Z,22.07
2023-04-12T09:30:54.771Z,22.06
2023-04-12T09:33:22.247Z,22.04
2023-04-12T09:35:48.724Z,22.05
2023-04-12T09:38:15.345Z,22.04
2023-04-12T09:40:43.519Z,22.02
2023-04-12T09:43:10.678Z,22.02
2023-04-12T09:45:39.040Z,22.01
2023-04-12T09:48:06.361Z,22.00
2023-04-12T09:50:35.775Z,21.99
2023-04-12T09:53:02.661Z,21.99
2023-04-12T09:55:29.684Z,21.97
2023-04-12T09:57:56.172Z,21.97
2023-04-12T10:00:23.009Z,21.97
2023-04-12T10:02:51.820Z,21.95
2023-04-12T10:05:19.671Z,21.95
2023-04-12T10:07:46.468Z,21.97
2023-04-12T10:10:17.455Z,21.94
2023-04-12T10:12:45.502Z,21.98
2023-04-12T10:15:17.281Z,21.99
2023-04-12T10:17:45.367Z,22.01
2023-04-12T10:20:12.304Z,22.02
2023-04-12T10:22:39.450Z,22.03
2023-04-12T10:25:05.882Z,22.01
2023-04-12T10:27:32.474Z,21.97
2023-04-12T10:30:18.422Z,22.01
2023-04-12T10:32:44.780Z,21.99
2023-04-12T10:35:11.851Z,21.99
2023-04-12T10:37:56.901Z,21.99
2023-04-12T10:40:23.242Z,21.99
2023-04-12T10:42:49.684Z,21.99
2023-04-12T10:45:25.206Z,21.97
2023-04-12T10:47:51.519Z,21.95
2023-04-12T10:50:24.993Z,21.97
2023-04-12T10:53:09.858Z,21.94
2023-04-12T10:55:38.291Z,21.95
2023-04-12T10:58:04.659Z,21.93
2023-04-12T11:00:49.657Z,21.94
2023-04-12T11:03:17.885Z,21.93
2023-04-12T11:05:56.924Z,21.93
2023-04-12T11:08:23.348Z,21.94
2023-04-12T11:10:49.980Z,21.95
2023-04-12T11:13:16.685Z,21.93
2023-04-12T11:15:43.847Z,21.92
2023-04-12T11:18:10.522Z,21.92
2023-04-12T11:20:36.947Z,21.91
2023-04-12T11:23:03.481Z,21.90
2023-04-12T11:25:29.833Z,21.90
2023-04-12T11:27:56.317Z,21.92
2023-04-12T11:30:23.616Z,21.92
2023-04-12T11:32:50.189Z,22.00
2023-04-12T11:35:16.991Z,21.87
2023-04-12T11:37:43.705Z,21.87
2023-04-12T11:40:10.428Z,21.93
2023-04-12T11:42:36.767Z,21.92
2023-04-12T11:45:10.127Z,21.96
2023-04-12T11:47:44.325Z,22.07
2023-04-12T11:50:10.988Z,22.21
2023-04-12T11:52:37.346Z,22.26
2023-04-12T11:55:06.499Z,22.31
2023-04-12T11:57:33.085Z,22.37
2023-04-12T12:00:00.174Z,22.40
2023-04-12T12:02:30.397Z,22.43
2023-04-12T12:04:58.556Z,22.44
2023-04-12T12:07:25.819Z,22.44
2023-04-12T12:09:52.360Z,22.47
2023-04-12T12:12:18.814Z,22.50
2023-04-12T12:14:45.546Z,22.49
2023-04-12T12:17:12.356Z,22.50
2023-04-12T12:19:39.761Z,22.48
2023-04-12T12:22:06.046Z,22.47
2023-04-12T12:24:32.429Z,22.48
2023-04-12T12:27:01.274Z,22.50
2023-04-12T12:29:27.605Z,22.50
2023-04-12T12:31:54.019Z,22.54
2023-04-12T12:34:20.423Z,22.56
2023-04-12T12:36:47.065Z,22.55
2023-04-12T12:39:15.354Z,22.56
2023-04-12T12:41:41.729Z,22.56
2023-04-12T12:44:08.625Z,22.56
2023-04-12T12:49:04.276Z,22.70
2023-04-12T12:51:31.432Z,22.80
2023-04-12T12:53:58.014Z,22.83
2023-04-12T12:56:24.536Z,22.87
2023-04-12T12:58:50.881Z,22.96
2023-04-12T13:01:17.221Z,23.05
2023-04-12T13:03:43.800Z,23.02
2023-04-12T13:06:10.271Z,23.00
2023-04-12T13:08:37.148Z,23.01
2023-04-12T13:11:03.906Z,22.94
2023-04-12T13:13:30.366Z,23.01
2023-04-12T13:15:56.703Z,23.00
2023-04-12T13:18:23.048Z,23.01
2023-04-12T13:20:49.357Z,22.99
2023-04-12T13:23:16.033Z,22.98
2023-04-12T13:25:42.363Z,22.98
2023-04-12T13:28:08.718Z,22.92
2023-04-12T13:30:35.170Z,22.98
2023-04-12T13:33:01.550Z,22.93
2023-04-12T13:35:27.894Z,22.91
2023-04-12T13:37:54.439Z,22.87
2023-04-12T13:40:20.839Z,22.84
2023-04-12T13:42:47.197Z,22.84
2023-04-12T13:45:13.661Z,22.81
2023-04-12T13:47:40.051Z,22.80
2023-04-12T13:50:06.796Z,22.81
2023-04-12T13:52:33.145Z,22.83
2023-04-12T13:54:59.608Z,22.87
2023-04-12T13:57:26.245Z,22.92
2023-04-12T13:59:52.550Z,22.98
2023-04-12T14:02:18.953Z,23.01
2023-04-12T14:04:54.360Z,22.98
2023-04-12T14:07:21.184Z,23.01
2023-04-12T14:09:48.613Z,23.04
2023-04-12T14:12:15.467Z,23.04
2023-04-12T14:14:42.234Z,23.01
2023-04-12T14:17:08.619Z,23.04
2023-04-12T14:19:34.959Z,23.00
2023-04-12T14:22:02.395Z,23.03
2023-04-12T14:24:28.736Z,23.02
2023-04-12T14:26:57.100Z,23.02
2023-04-12T14:29:23.465Z,23.04
2023-04-12T14:31:49.853Z,23.05
2023-04-12T14:34:16.312Z,22.99
2023-04-12T14:36:42.696Z,22.95
2023-04-12T14:39:10.836Z,22.94
2023-04-12T14:41:38.567Z,22.97
2023-04-12T14:44:05.009Z,22.91
2023-04-12T14:46:31.810Z,22.89
2023-04-12T14:49:00.940Z,22.87
2023-04-12T14:51:28.194Z,22.82
2023-04-12T14:53:54.531Z,22.81
2023-04-12T14:56:23.859Z,22.79
2023-04-12T14:58:51.242Z,22.81
2023-04-12T15:01:18.409Z,22.79
2023-04-12T15:03:45.804Z,22.84
2023-04-12T15:06:12.979Z,22.92
2023-04-12T15:08:42.817Z,22.96
2023-04-12T15:11:09.950Z,22.98
2023-04-12T15:13:36.795Z,22.99
2023-04-12T15:16:03.909Z,22.97
2023-04-12T15:18:30.378Z,23.06
2023-04-12T15:21:00.078Z,23.09
2023-04-12T15:23:26.801Z,23.03
2023-04-12T15:26:01.103Z,23.01
2023-04-12T15:28:27.889Z,23.00
2023-04-12T15:30:55.508Z,23.01
2023-04-12T15:33:23.105Z,23.00
2023-04-12T15:35:50.537Z,23.00
2023-04-12T15:38:21.941Z,23.00
2023-04-12T15:40:56.791Z,22.99
2023-04-12T15:43:24.832Z,22.98
2023-04-12T15:45:53.223Z,22.97
2023-04-12T15:48:20.554Z,22.98
2023-04-12T15:50:47.467Z,22.99
2023-04-12T15:53:14.296Z,22.99
2023-04-12T15:55:43.839Z,22.98
2023-04-12T15:58:10.567Z,22.96
2023-04-12T16:00:38.258Z,22.97
2023-04-12T16:03:05.018Z,23.06
2023-04-12T16:05:32.990Z,23.06
2023-04-12T16:07:59.742Z,23.06
2023-04-12T16:10:26.828Z,23.09
2023-04-12T16:12:53.906Z,23.10
2023-04-12T16:15:20.546Z,23.17
2023-04-12T16:17:47.350Z,23.26
2023-04-12T16:20:17.173Z,23.32
2023-04-12T16:22:44.757Z,23.47
2023-04-12T16:25:12.138Z,23.57
2023-04-12T16:27:38.534Z,23.60
2023-04-12T16:30:05.649Z,23.63
2023-04-12T16:32:32.175Z,23.64
2023-04-12T16:34:59.008Z,23.63
2023-04-12T16:37:26.439Z,23.67
2023-04-12T16:39:53.036Z,23.66
2023-04-12T16:42:21.937Z,23.67
2023-04-12T16:44:48.263Z,23.71
2023-04-12T16:47:15.352Z,23.71
2023-04-12T16:49:41.797Z,23.71
2023-04-12T16:52:09.721Z,23.70
2023-04-12T16:54:36.046Z,23.68
2023-04-12T16:57:02.365Z,23.63
2023-04-12T16:59:35.527Z,23.56
2023-04-12T17:02:01.912Z,23.53
2023-04-12T17:04:28.450Z,23.56
2023-04-12T17:06:54.939Z,23.53
2023-04-12T17:09:21.431Z,23.50
2023-04-12T17:11:47.748Z,23.48
2023-04-12T17:14:14.862Z,23.47
2023-04-12T17:16:41.333Z,23.44
2023-04-12T17:19:10.453Z,23.39
2023-04-12T17:21:40.922Z,23.37
2023-04-12T17:24:07.594Z,23.35
2023-04-12T17:26:33.945Z,23.34
2023-04-12T17:29:01.030Z,23.31
2023-04-12T17:34:01.007Z,23.38
2023-04-12T17:36:31.335Z,23.48
2023-04-12T17:38:58.965Z,23.58
2023-04-12T17:41:25.999Z,23.69
2023-04-12T17:43:52.382Z,23.71
2023-04-12T17:46:18.748Z,23.76
2023-04-12T17:48:45.257Z,23.76
2023-04-12T17:51:11.621Z,23.75
2023-04-12T17:53:38.010Z,23.74
2023-04-12T17:56:04.513Z,23.75
2023-04-12T17:58:30.914Z,23.76
2023-04-12T18:00:57.250Z,23.73
2023-04-12T18:03:23.763Z,23.75
2023-04-12T18:05:50.591Z,23.70
2023-04-12T18:08:16.967Z,23.69
2023-04-12T18:10:43.291Z,23.65
2023-04-12T18:13:09.766Z,23.65
2023-04-12T18:15:37.495Z,23.64
2023-04-12T18:18:04.427Z,23.58
2023-04-12T18:20:31.271Z,23.54
2023-04-12T18:22:57.609Z,23.52
2023-04-12T18:25:23.959Z,23.49
2023-04-12T18:27:50.303Z,23.46
2023-04-12T18:30:17.619Z,23.42
2023-04-12T18:32:44.052Z,23.42
2023-04-12T18:35:10.789Z,23.39
2023-04-12T18:37:37.186Z,23.35
2023-04-12T18:40:07.073Z,23.34
2023-04-12T18:42:33.419Z,23.33
2023-04-12T18:44:59.764Z,23.30
2023-04-12T18:47:26.240Z,23.33
2023-04-12T18:49:53.960Z,23.40
2023-04-12T18:52:20.274Z,23.56
2023-04-12T18:54:46.638Z,23.67
2023-04-12T18:57:13.660Z,23.76
2023-04-12T18:59:40.041Z,23.77
2023-04-12T19:02:06.806Z,23.83
2023-04-12T19:04:33.165Z,23.85
2023-04-12T19:06:59.580Z,23.85
2023-04-12T19:09:26.019Z,23.85
2023-04-12T19:11:55.407Z,23.84
2023-04-12T19:14:21.801Z,23.83
2023-04-12T19:16:48.116Z,23.79
2023-04-12T19:19:14.540Z,23.79
2023-04-12T19:21:41.009Z,23.76
2023-04-12T19:24:07.640Z,23.73
2023-04-12T19:26:36.588Z,23.74
2023-04-12T19:29:03.040Z,23.74
2023-04-12T19:31:29.370Z,23.72
2023-04-12T19:33:56.553Z,23.66
2023-04-12T19:36:24.396Z,23.65
2023-04-12T19:38:50.754Z,23.61
2023-04-12T19:41:17.156Z,23.58
2023-04-12T19:43:43.493Z,23.59
2023-04-12T19:46:09.949Z,23.58
2023-04-12T19:48:36.689Z,23.57
2023-04-12T19:51:04.273Z,23.69
2023-04-12T19:53:30.742Z,23.83
2023-04-12T19:55:57.347Z,23.88
2023-04-12T19:58:24.367Z,23.88
2023-04-12T20:00:51.734Z,23.88
2023-04-12T20:03:18.200Z,23.90
2023-04-12T20:05:45.990Z,23.77
2023-04-12T20:08:12.306Z,23.68
2023-04-12T20:10:38.838Z,23.67
2023-04-12T20:13:09.620Z,23.58
2023-04-12T20:15:36.092Z,23.45
2023-04-12T20:18:02.844Z,23.43
2023-04-12T20:20:29.192Z,23.46
2023-04-12T20:22:58.750Z,23.55
2023-04-12T20:25:25.807Z,23.50
2023-04-12T20:27:52.400Z,23.38
2023-04-12T20:30:18.996Z,23.42
2023-04-12T20:32:45.349Z,23.42
2023-04-12T20:35:14.064Z,23.41
2023-04-12T20:37:40.495Z,23.36
2023-04-12T20:40:07.283Z,23.35
2023-04-12T20:42:33.610Z,23.34
2023-04-12T20:44:59.937Z,23.29
2023-04-12T20:47:26.480Z,23.26
2023-04-12T20:49:52.878Z,23.23
2023-04-12T20:52:19.542Z,23.22
2023-04-12T20:54:48.138Z,23.19
2023-04-12T20:57:19.806Z,23.22
2023-04-12T20:59:46.320Z,23.13
2023-04-12T21:02:13.159Z,23.02
2023-04-12T21:04:41.096Z,23.09
2023-04-12T21:07:07.519Z,23.11
2023-04-12T21:09:34.014Z,23.09
2023-04-12T21:12:02.727Z,23.06
2023-04-12T21:14:29.389Z,23.04
2023-04-12T21:16:55.745Z,23.03
2023-04-12T21:19:22.839Z,23.01
2023-04-12T21:21:51.123Z,23.00
2023-04-12T21:24:18.420Z,22.97
2023-04-12T21:26:44.973Z,22.95
2023-04-12T21:29:11.658Z,22.94
2023-04-12T21:31:41.526Z,22.92
2023-04-12T21:34:09.160Z,22.86
2023-04-12T21:36:35.490Z,22.83
2023-04-12T21:39:01.931Z,22.81
2023-04-12T21:41:29.588Z,22.79
2023-04-12T21:43:55.933Z,22.71
2023-04-12T21:46:27.006Z,22.63
2023-04-12T21:48:53.392Z,22.53
2023-04-12T21:51:19.700Z,22.49
2023-04-12T21:53:46.269Z,22.44
2023-04-12T21:56:12.599Z,22.42
2023-04-12T21:58:38.958Z,22.41
2023-04-12T22:01:05.418Z,22.39
2023-04-12T22:03:32.114Z,22.35
2023-04-12T22:06:04.292Z,22.34
2023-04-12T22:08:32.855Z,22.35
2023-04-12T22:11:00.209Z,22.33
2023-04-12T22:13:26.747Z,22.32
2023-04-12T22:15:53.073Z,22.29
2023-04-12T22:18:19.480Z,22.27
2023-04-12T22:20:45.985Z,22.24
2023-04-12T22:23:13.719Z,22.23
2023-04-12T22:25:40.057Z,22.22
2023-04-12T22:28:06.373Z,22.20
2023-04-12T22:30:32.846Z,22.17
2023-04-12T22:32:59.901Z,22.14
2023-04-12T22:35:27.019Z,22.12
2023-04-12T22:37:53.406Z,22.12
2023-04-12T22:40:19.769Z,22.13
2023-04-12T22:42:47.197Z,22.11
2023-04-12T22:45:16.818Z,22.08
2023-04-12T22:47:43.821Z,22.09
2023-04-12T22:50:10.940Z,22.06
2023-04-12T22:52:40.405Z,22.06
2023-04-12T22:55:07.676Z,22.04
2023-04-12T22:57:36.197Z,22.05
2023-04-12T23:00:06.337Z,22.04
2023-04-12T23:02:33.621Z,22.00
2023-04-12T23:05:00.389Z,22.01
2023-04-12T23:07:29.751Z,21.99
2023-04-12T23:09:56.318Z,21.98
2023-04-12T23:12:22.629Z,21.97
2023-04-12T23:14:48.947Z,21.97
2023-04-12T23:17:16.770Z,21.95
2023-04-12T23:19:44.578Z,21.93
2023-04-12T23:22:11.430Z,21.91
2023-04-12T23:24:37.752Z,21.89
2023-04-12T23:27:04.062Z,21.87
2023-04-12T23:29:30.383Z,21.86
2023-04-12T23:31:56.775Z,21.85
2023-04-12T23:34:23.168Z,21.83
2023-04-12T23:36:50.465Z,21.82
2023-04-12T23:39:18.107Z,21.81
2023-04-12T23:41:45.057Z,21.80
2023-04-12T23:44:11.390Z,21.80
2023-04-12T23:46:38.749Z,21.77
2023-04-12T23:49:05.179Z,21.76
2023-04-12T23:51:31.509Z,21.76
2023-04-12T23:53:58.138Z,21.75
2023-04-12T23:56:24.657Z,21.73
2023-04-12T23:58:51.373Z,21.72
